createdAt,value
2023-04-12T00:01:46.029Z,3.76
2023-04-12T00:04:47.627Z,3.74
2023-04-12T00:08:04.502Z,3.83
2023-04-12T00:11:06.433Z,3.82
2023-04-12T00:14:10.113Z,3.73
2023-04-12T00:17:11.768Z,3.57
2023-04-12T00:20:13.922Z,3.36
2023-04-12T00:23:19.288Z,3.19
2023-04-12T00:26:21.157Z,3.21
2023-04-12T00:29:24.772Z,2.90
2023-04-12T00:32:27.717Z,2.47
2023-04-12T00:35:29.612Z,2.49
2023-04-12T00:38:33.998Z,2.71
2023-04-12T00:41:37.812Z,2.86
2023-04-12T00:44:39.340Z,2.70
2023-04-12T00:47:42.974Z,2.42
2023-04-12T00:50:44.555Z,2.31
2023-04-12T00:53:47.674Z,2.60
2023-04-12T00:56:49.282Z,2.52
2023-04-12T00:59:51.545Z,2.64
2023-04-12T01:02:54.743Z,2.77
2023-04-12T01:06:03.624Z,2.99
2023-04-12T01:09:11.439Z,2.72
2023-04-12T01:12:19.064Z,2.58
2023-04-12T01:15:21.603Z,2.73
2023-04-12T01:18:26.052Z,2.64
2023-04-12T01:21:31.546Z,2.52
2023-04-12T01:24:41.633Z,1.92
2023-04-12T01:27:46.532Z,1.60
2023-04-12T01:30:50.959Z,1.38
2023-04-12T01:33:54.397Z,1.40
2023-04-12T01:36:57.440Z,1.52
2023-04-12T01:40:01.389Z,1.91
2023-04-12T01:43:08.939Z,2.01
2023-04-12T01:46:10.744Z,1.81
2023-04-12T01:49:12.390Z,1.67
2023-04-12T01:52:19.923Z,1.27
2023-04-12T01:55:21.869Z,1.30
2023-04-12T01:58:25.260Z,1.27
2023-04-12T02:01:31.605Z,1.29
2023-04-12T02:04:34.498Z,1.30
2023-04-12T02:07:36.796Z,1.33
2023-04-12T02:10:38.570Z,1.23
2023-04-12T02:13:41.540Z,1.23
2023-04-12T02:16:44.668Z,1.24
2023-04-12T02:19:46.298Z,1.30
2023-04-12T02:22:48.461Z,1.58
2023-04-12T02:25:55.628Z,1.59
2023-04-12T02:28:58.498Z,1.32
2023-04-12T02:32:02.560Z,1.50
2023-04-12T02:35:04.403Z,1.73
2023-04-12T02:38:06.722Z,1.86
2023-04-12T02:41:08.303Z,1.53
2023-04-12T02:44:11.247Z,1.54
2023-04-12T02:47:13.185Z,1.44
2023-04-12T02:50:15.988Z,1.46
2023-04-12T02:53:17.553Z,1.52
2023-04-12T02:56:19.274Z,1.32
2023-04-12T02:59:25.063Z,1.53
2023-04-12T03:02:27.778Z,1.74
2023-04-12T03:05:29.463Z,1.91
2023-04-12T03:08:31.102Z,1.87
2023-04-12T03:11:35.852Z,1.95
2023-04-12T03:14:38.763Z,1.97
2023-04-12T03:17:45.232Z,2.08
2023-04-12T03:20:47.866Z,2.09
2023-04-12T03:23:49.593Z,2.16
2023-04-12T03:26:51.192Z,2.15
2023-04-12T03:29:54.250Z,2.14
2023-04-12T03:32:58.890Z,2.14
2023-04-12T03:36:00.746Z,2.30
2023-04-12T03:39:02.629Z,2.35
2023-04-12T03:42:05.274Z,2.31
2023-04-12T03:45:10.246Z,2.31
2023-04-12T03:48:11.949Z,2.27
2023-04-12T03:51:16.244Z,2.22
2023-04-12T03:54:18.008Z,1.94
2023-04-12T03:57:19.680Z,2.03
2023-04-12T04:00:22.872Z,1.87
2023-04-12T04:03:25.342Z,1.87
2023-04-12T04:06:27.182Z,1.66
2023-04-12T04:09:29.540Z,1.76
2023-04-12T04:12:31.158Z,1.97
2023-04-12T04:15:34.301Z,2.08
2023-04-12T04:18:35.985Z,2.07
2023-04-12T04:21:39.423Z,2.20
2023-04-12T04:24:42.446Z,2.26
2023-04-12T04:27:44.286Z,2.21
2023-04-12T04:30:47.152Z,1.89
2023-04-12T04:33:48.743Z,1.95
2023-04-12T04:36:51.763Z,1.95
2023-04-12T04:39:53.362Z,2.08
2023-04-12T04:42:59.782Z,2.29
2023-04-12T04:46:03.178Z,2.46
2023-04-12T04:49:05.101Z,2.45
2023-04-12T04:52:08.271Z,2.47
2023-04-12T04:55:11.408Z,2.55
2023-04-12T04:58:13.312Z,2.65
2023-04-12T05:01:16.281Z,2.68
2023-04-12T05:04:18.334Z,2.73
2023-04-12T05:07:20.098Z,2.76
2023-04-12T05:10:21.686Z,2.78
2023-04-12T05:13:23.802Z,2.79
2023-04-12T05:16:26.997Z,2.87
2023-04-12T05:19:29.163Z,2.91
2023-04-12T05:22:31.482Z,2.97
2023-04-12T05:25:33.085Z,2.99
2023-04-12T05:28:34.908Z,3.13
2023-04-12T05:31:38.453Z,3.13
2023-04-12T05:34:40.216Z,3.19
2023-04-12T05:37:41.813Z,3.24
2023-04-12T05:40:43.870Z,3.25
2023-04-12T05:43:45.710Z,3.35
2023-04-12T05:46:48.935Z,3.36
2023-04-12T05:49:50.452Z,3.35
2023-04-12T05:52:52.010Z,3.26
2023-04-12T05:55:53.730Z,3.45
2023-04-12T05:58:55.831Z,3.55
2023-04-12T06:01:59.080Z,3.61
2023-04-12T06:05:00.811Z,3.73
2023-04-12T06:08:02.779Z,3.77
2023-04-12T06:11:05.408Z,3.80
2023-04-12T06:14:07.084Z,3.85
2023-04-12T06:17:10.603Z,3.94
2023-04-12T06:20:12.551Z,4.02
2023-04-12T06:23:14.089Z,4.07
2023-04-12T06:26:18.414Z,4.11
2023-04-12T06:29:20.571Z,4.21
2023-04-12T06:32:23.954Z,4.28
2023-04-12T06:35:26.381Z,4.29
2023-04-12T06:38:27.944Z,4.32
2023-04-12T06:41:31.124Z,4.40
2023-04-12T06:44:32.986Z,4.44
2023-04-12T06:47:39.028Z,4.48
2023-04-12T06:50:42.920Z,4.53
2023-04-12T06:53:46.785Z,4.55
2023-04-12T06:56:48.482Z,4.59
2023-04-12T06:59:53.143Z,4.62
2023-04-12T07:02:56.258Z,4.68
2023-04-12T07:05:58.073Z,4.73
2023-04-12T07:09:00.010Z,4.78
2023-04-12T07:12:02.194Z,4.84
2023-04-12T07:15:04.043Z,4.92
2023-04-12T07:18:07.044Z,4.91
2023-04-12T07:21:08.650Z,5.00
2023-04-12T07:24:13.039Z,5.03
2023-04-12T07:27:14.558Z,5.09
2023-04-12T07:30:16.233Z,5.12
2023-04-12T07:33:20.079Z,5.15
2023-04-12T07:36:27.715Z,5.27
2023-04-12T07:39:29.259Z,5.25
2023-04-12T07:42:31.463Z,5.26
2023-04-12T07:45:33.779Z,5.36
2023-04-12T07:48:36.794Z,5.45
2023-04-12T07:51:42.061Z,5.51
2023-04-12T07:54:43.540Z,5.57
2023-04-12T07:57:45.084Z,5.59
2023-04-12T08:00:47.117Z,5.61
2023-04-12T08:03:52.772Z,5.65
2023-04-12T08:06:55.149Z,5.71
2023-04-12T08:09:56.799Z,5.80
2023-04-12T08:12:58.901Z,5.80
2023-04-12T08:16:01.676Z,5.83
2023-04-12T08:19:07.692Z,5.88
2023-04-12T08:22:10.103Z,5.93
2023-04-12T08:25:14.389Z,5.98
2023-04-12T08:28:16.222Z,6.04
2023-04-12T08:31:18.899Z,6.12
2023-04-12T08:34:22.237Z,6.20
2023-04-12T08:37:23.977Z,6.29
2023-04-12T08:40:29.553Z,6.34
2023-04-12T08:43:32.417Z,6.41
2023-04-12T08:46:35.630Z,6.50
2023-04-12T08:49:38.884Z,6.58
2023-04-12T08:52:40.920Z,6.64
2023-04-12T08:55:43.985Z,6.67
2023-04-12T08:58:46.495Z,6.73
2023-04-12T09:01:48.694Z,6.79
2023-04-12T09:04:52.870Z,6.82
2023-04-12T09:07:54.685Z,6.93
2023-04-12T09:10:57.516Z,7.10
2023-04-12T09:14:01.896Z,7.11
2023-04-12T09:17:04.851Z,7.24
2023-04-12T09:20:22.248Z,7.25
2023-04-12T09:23:23.845Z,7.31
2023-04-12T09:26:28.768Z,7.51
2023-04-12T09:29:30.520Z,7.54
2023-04-12T09:32:32.149Z,7.54
2023-04-12T09:35:35.438Z,7.63
2023-04-12T09:38:37.750Z,7.72
2023-04-12T09:41:39.294Z,7.94
2023-04-12T09:44:40.845Z,7.98
2023-04-12T09:47:42.552Z,8.11
2023-04-12T09:50:47.946Z,8.15
2023-04-12T09:53:50.790Z,8.24
2023-04-12T09:56:54.009Z,8.37
2023-04-12T10:00:00.194Z,8.45
2023-04-12T10:03:04.572Z,8.51
2023-04-12T10:06:08.416Z,8.52
2023-04-12T10:09:10.977Z,8.59
2023-04-12T10:12:13.025Z,8.55
2023-04-12T10:15:15.132Z,8.57
2023-04-12T10:18:18.071Z,8.55
2023-04-12T10:21:24.353Z,8.60
2023-04-12T10:24:27.450Z,8.62
2023-04-12T10:27:30.036Z,8.51
2023-04-12T10:30:32.244Z,8.61
2023-04-12T10:33:33.953Z,8.58
2023-04-12T10:36:53.835Z,8.62
2023-04-12T10:39:55.483Z,8.68
2023-04-12T10:43:16.107Z,8.77
2023-04-12T10:46:36.459Z,8.73
2023-04-12T10:49:38.663Z,8.82
2023-04-12T10:52:41.650Z,8.74
2023-04-12T10:55:43.824Z,8.64
2023-04-12T10:59:01.504Z,8.71
2023-04-12T11:02:13.076Z,8.71
2023-04-12T11:05:16.484Z,8.56
2023-04-12T11:08:24.245Z,8.55
2023-04-12T11:11:29.122Z,8.58
2023-04-12T11:14:36.675Z,8.63
2023-04-12T11:17:38.652Z,8.59
2023-04-12T11:20:40.406Z,8.64
2023-04-12T11:23:47.839Z,8.60
2023-04-12T11:26:51.408Z,8.61
2023-04-12T11:29:54.127Z,8.63
2023-04-12T11:32:55.718Z,8.70
2023-04-12T11:35:57.307Z,8.73
2023-04-12T11:39:00.510Z,8.80
2023-04-12T11:42:02.339Z,8.89
2023-04-12T11:45:13.376Z,8.92
2023-04-12T11:48:18.899Z,8.99
2023-04-12T11:51:21.514Z,9.08
2023-04-12T11:54:28.033Z,9.18
2023-04-12T11:57:29.689Z,9.45
2023-04-12T12:00:31.883Z,9.48
2023-04-12T12:03:33.611Z,9.40
2023-04-12T12:06:35.599Z,9.33
2023-04-12T12:09:41.261Z,9.44
2023-04-12T12:12:43.254Z,9.52
2023-04-12T12:15:45.387Z,9.57
2023-04-12T12:18:52.852Z,9.59
2023-04-12T12:22:06.193Z,9.70
2023-04-12T12:25:11.354Z,9.75
2023-04-12T12:28:13.501Z,9.87
2023-04-12T12:31:18.507Z,9.98
2023-04-12T12:34:20.508Z,10.02
2023-04-12T12:37:24.021Z,10.09
2023-04-12T12:40:30.771Z,10.22
2023-04-12T12:43:34.085Z,10.07
2023-04-12T12:49:40.572Z,10.26
2023-04-12T12:52:42.123Z,10.36
2023-04-12T12:55:45.144Z,10.27
2023-04-12T12:58:46.872Z,10.39
2023-04-12T13:01:49.608Z,10.51
2023-04-12T13:04:53.592Z,10.46
2023-04-12T13:07:55.290Z,10.69
2023-04-12T13:10:58.479Z,10.57
2023-04-12T13:14:00.443Z,10.60
2023-04-12T13:17:02.442Z,10.56
2023-04-12T13:20:05.365Z,10.67
2023-04-12T13:23:07.338Z,10.66
2023-04-12T13:26:12.312Z,10.54
2023-04-12T13:29:13.862Z,10.54
2023-04-12T13:32:15.489Z,10.54
2023-04-12T13:35:17.014Z,10.54
2023-04-12T13:38:19.030Z,10.74
2023-04-12T13:41:25.333Z,10.66
2023-04-12T13:44:29.194Z,10.68
2023-04-12T13:47:32.885Z,10.74
2023-04-12T13:50:35.710Z,10.68
2023-04-12T13:53:37.525Z,10.97
2023-04-12T13:56:42.636Z,10.84
2023-04-12T13:59:44.190Z,10.84
2023-04-12T14:02:45.772Z,10.79
2023-04-12T14:05:47.408Z,10.81
2023-04-12T14:08:48.966Z,10.86
2023-04-12T14:11:52.343Z,10.83
2023-04-12T14:14:53.985Z,10.85
2023-04-12T14:17:55.858Z,10.85
2023-04-12T14:20:58.709Z,10.88
2023-04-12T14:24:00.277Z,10.87
2023-04-12T14:27:03.425Z,10.87
2023-04-12T14:30:18.958Z,10.96
2023-04-12T14:33:20.767Z,11.01
2023-04-12T14:36:23.433Z,11.02
2023-04-12T14:39:25.004Z,11.02
2023-04-12T14:42:30.593Z,11.25
2023-04-12T14:45:32.442Z,11.37
2023-04-12T14:48:36.329Z,11.52
2023-04-12T14:51:38.650Z,11.56
2023-04-12T14:54:40.193Z,11.60
2023-04-12T14:57:45.689Z,11.68
2023-04-12T15:00:48.421Z,11.81
2023-04-12T15:03:51.025Z,11.88
2023-04-12T15:06:52.646Z,11.92
2023-04-12T15:09:54.401Z,11.98
2023-04-12T15:12:57.356Z,12.18
2023-04-12T15:15:58.960Z,12.14
2023-04-12T15:19:06.024Z,12.16
2023-04-12T15:22:12.967Z,12.04
2023-04-12T15:25:14.494Z,11.94
2023-04-12T15:28:17.457Z,11.91
2023-04-12T15:31:19.056Z,11.80
2023-04-12T15:34:20.749Z,11.89
2023-04-12T15:37:22.878Z,11.84
2023-04-12T15:40:27.596Z,11.82
2023-04-12T15:43:30.559Z,11.94
2023-04-12T15:46:32.226Z,12.10
2023-04-12T15:49:35.733Z,12.46
2023-04-12T15:52:37.487Z,12.74
2023-04-12T15:55:39.293Z,12.85
2023-04-12T15:58:45.100Z,13.09
2023-04-12T16:01:46.891Z,13.09
2023-04-12T16:04:48.983Z,13.32
2023-04-12T16:07:50.752Z,13.49
2023-04-12T16:10:52.607Z,13.43
2023-04-12T16:13:57.898Z,13.52
2023-04-12T16:17:00.962Z,13.54
2023-04-12T16:20:03.802Z,13.48
2023-04-12T16:23:05.817Z,13.33
2023-04-12T16:26:08.765Z,13.23
2023-04-12T16:29:15.123Z,13.12
2023-04-12T16:32:17.292Z,13.02
2023-04-12T16:35:19.111Z,12.88
2023-04-12T16:38:21.463Z,12.80
2023-04-12T16:41:23.164Z,12.70
2023-04-12T16:44:27.519Z,12.56
2023-04-12T16:47:29.063Z,12.42
2023-04-12T16:50:31.862Z,12.36
2023-04-12T16:53:33.720Z,12.15
2023-04-12T16:56:37.051Z,12.07
2023-04-12T16:59:40.222Z,11.96
2023-04-12T17:02:45.076Z,11.85
2023-04-12T17:05:46.897Z,11.87
2023-04-12T17:08:49.217Z,11.75
2023-04-12T17:11:50.902Z,11.66
2023-04-12T17:14:54.151Z,11.58
2023-04-12T17:18:12.122Z,11.53
2023-04-12T17:21:14.784Z,11.46
2023-04-12T17:24:17.177Z,11.43
2023-04-12T17:27:20.055Z,11.45
2023-04-12T17:30:29.358Z,11.43
2023-04-12T17:33:31.371Z,11.41
2023-04-12T17:36:34.138Z,11.31
2023-04-12T17:39:36.246Z,11.23
2023-04-12T17:42:40.157Z,11.21
2023-04-12T17:45:43.966Z,11.19
2023-04-12T17:48:46.330Z,11.15
2023-04-12T17:51:49.443Z,11.11
2023-04-12T17:54:52.176Z,10.89
2023-04-12T17:57:55.428Z,10.89
2023-04-12T18:01:02.470Z,10.74
2023-04-12T18:04:05.025Z,10.73
2023-04-12T18:07:07.382Z,10.71
2023-04-12T18:10:10.045Z,10.68
2023-04-12T18:13:17.043Z,10.60
2023-04-12T18:16:22.219Z,10.55
2023-04-12T18:19:25.368Z,10.49
2023-04-12T18:22:27.459Z,10.43
2023-04-12T18:25:30.164Z,10.41
2023-04-12T18:28:32.302Z,10.37
2023-04-12T18:31:38.974Z,10.36
2023-04-12T18:34:44.365Z,10.32
2023-04-12T18:37:46.772Z,10.03
2023-04-12T18:40:51.032Z,9.98
2023-04-12T18:43:55.192Z,9.90
2023-04-12T18:47:03.521Z,9.94
2023-04-12T18:50:06.425Z,9.92
2023-04-12T18:53:10.901Z,9.77
2023-04-12T18:56:14.161Z,9.56
2023-04-12T18:59:21.018Z,9.63
2023-04-12T19:02:33.697Z,9.58
2023-04-12T19:05:38.186Z,9.49
2023-04-12T19:08:42.537Z,9.39
2023-04-12T19:11:45.774Z,9.25
2023-04-12T19:14:49.925Z,9.14
2023-04-12T19:17:58.324Z,9.14
2023-04-12T19:21:01.726Z,8.96
2023-04-12T19:24:04.607Z,8.68
2023-04-12T19:27:07.334Z,8.58
2023-04-12T19:30:10.484Z,8.62
2023-04-12T19:33:16.357Z,8.65
2023-04-12T19:36:18.674Z,8.49
2023-04-12T19:39:23.265Z,8.48
2023-04-12T19:42:25.872Z,8.68
2023-04-12T19:45:28.509Z,8.77
2023-04-12T19:48:33.555Z,8.71
2023-04-12T19:51:36.237Z,8.48
2023-04-12T19:54:39.527Z,8.23
2023-04-12T19:57:42.284Z,8.11
2023-04-12T20:00:45.307Z,8.11
2023-04-12T20:03:51.739Z,8.08
2023-04-12T20:06:54.522Z,8.26
2023-04-12T20:09:56.935Z,8.13
2023-04-12T20:12:59.685Z,8.06
2023-04-12T20:16:02.722Z,8.06
2023-04-12T20:19:06.298Z,8.01
2023-04-12T20:22:09.238Z,7.83
2023-04-12T20:25:13.138Z,7.70
2023-04-12T20:28:15.845Z,7.55
2023-04-12T20:31:19.079Z,7.49
2023-04-12T20:34:22.589Z,7.66
2023-04-12T20:37:24.990Z,7.63
2023-04-12T20:40:27.812Z,7.86
2023-04-12T20:43:37.464Z,7.84
2023-04-12T20:46:39.594Z,7.91
2023-04-12T20:49:43.038Z,7.89
2023-04-12T20:52:44.844Z,7.83
2023-04-12T20:55:46.814Z,7.66
2023-04-12T20:58:48.551Z,7.60
2023-04-12T21:01:51.154Z,7.78
2023-04-12T21:04:54.558Z,7.90
2023-04-12T21:07:56.158Z,8.03
2023-04-12T21:10:57.711Z,8.05
2023-04-12T21:13:59.266Z,7.88
2023-04-12T21:17:00.863Z,8.50
2023-04-12T21:20:04.131Z,8.68
2023-04-12T21:23:07.299Z,9.00
2023-04-12T21:26:09.045Z,9.06
2023-04-12T21:29:12.898Z,9.11
2023-04-12T21:32:14.418Z,9.21
2023-04-12T21:35:19.825Z,9.23
2023-04-12T21:38:21.517Z,9.28
2023-04-12T21:41:23.249Z,9.23
2023-04-12T21:44:24.967Z,9.22
2023-04-12T21:47:29.448Z,9.23
2023-04-12T21:50:34.429Z,9.22
2023-04-12T21:53:38.722Z,9.12
2023-04-12T21:56:40.696Z,9.03
2023-04-12T21:59:42.896Z,8.99
2023-04-12T22:02:44.956Z,8.89
2023-04-12T22:06:00.776Z,8.84
2023-04-12T22:09:07.073Z,8.81
2023-04-12T22:12:08.882Z,8.76
2023-04-12T22:15:10.987Z,8.78
2023-04-12T22:18:12.475Z,8.67
2023-04-12T22:21:15.608Z,8.64
2023-04-12T22:24:17.179Z,8.64
2023-04-12T22:27:18.675Z,8.53
2023-04-12T22:30:22.606Z,8.55
2023-04-12T22:33:24.148Z,8.47
2023-04-12T22:36:29.325Z,8.50
2023-04-12T22:39:31.163Z,8.39
2023-04-12T22:42:32.696Z,8.33
2023-04-12T22:45:34.671Z,8.31
2023-04-12T22:48:36.216Z,8.33
2023-04-12T22:51:39.127Z,8.26
2023-04-12T22:54:41.081Z,8.19
2023-04-12T22:57:42.678Z,8.14
2023-04-12T23:00:45.026Z,8.08
2023-04-12T23:03:47.215Z,8.11
2023-04-12T23:06:53.005Z,8.12
2023-04-12T23:09:54.484Z,8.05
2023-04-12T23:12:56.006Z,7.98
2023-04-12T23:16:00.575Z,7.97
2023-04-12T23:19:02.165Z,7.97
2023-04-12T23:22:07.199Z,7.93
2023-04-12T23:25:08.948Z,7.94
2023-04-12T23:28:11.528Z,8.02
2023-04-12T23:31:13.146Z,7.99
2023-04-12T23:34:14.828Z,8.03
2023-04-12T23:37:18.440Z,7.94
2023-04-12T23:40:19.958Z,7.98
2023-04-12T23:43:24.665Z,7.94
2023-04-12T23:46:26.637Z,8.01
2023-04-12T23:49:28.280Z,8.00
2023-04-12T23:52:31.179Z,7.96
2023-04-12T23:55:32.736Z,7.87
2023-04-12T23:58:34.465Z,7.83
